Time;durP1;ratioP1;P1;durP2;ratioP2;P2;SDS_P1;SDS_P2;PMS_P1;PMS_P2;Temp;Humidity;BMP_temperature;BMP_pressure;BME280_temperature;BME280_humidity;BME280_pressure;Samples;Min_cycle;Max_cycle;Signal;HPM_P1;HPM_P2
2022/04/28 00:00:10;;;;;;;4.28;2.30;;;10.10;74.70;;;;;;5064600;28;20051;-69
2022/04/28 00:02:37;;;;;;;4.47;2.15;;;10.10;74.70;;;;;;5068839;28;20047;-69
2022/04/28 00:05:06;;;;;;;5.53;2.40;;;10.00;74.70;;;;;;5068497;28;20080;-69
2022/04/28 00:07:33;;;;;;;5.18;2.28;;;9.90;74.80;;;;;;5068460;28;20045;-70
2022/04/28 00:10:00;;;;;;;4.50;2.65;;;9.90;74.70;;;;;;5068654;28;20075;-70
2022/04/28 00:12:27;;;;;;;4.65;2.17;;;9.90;74.70;;;;;;5070789;28;20041;-70
2022/04/28 00:14:56;;;;;;;4.63;2.35;;;9.90;74.70;;;;;;5070385;28;20053;-70
2022/04/28 00:17:22;;;;;;;5.18;2.50;;;9.90;74.70;;;;;;5068527;28;20126;-70
2022/04/28 00:19:49;;;;;;;5.25;2.05;;;9.80;74.90;;;;;;5069997;28;20123;-70
2022/04/28 00:22:17;;;;;;;5.07;2.30;;;9.80;74.80;;;;;;5069358;28;20067;-70
2022/04/28 00:24:44;;;;;;;5.90;2.22;;;9.80;74.80;;;;;;5068738;28;20055;-70
2022/04/28 00:27:11;;;;;;;4.43;2.10;;;9.70;74.80;;;;;;5070901;28;20099;-70
2022/04/28 00:29:38;;;;;;;3.97;2.60;;;9.70;74.80;;;;;;5070458;28;20044;-69
2022/04/28 00:32:07;;;;;;;6.38;2.47;;;9.70;74.70;;;;;;5052729;28;20520;-69
2022/04/28 00:34:34;;;;;;;4.05;1.92;;;9.70;74.70;;;;;;5051594;28;20048;-68
2022/04/28 00:37:01;;;;;;;4.47;2.22;;;9.60;74.80;;;;;;5066610;28;20040;-70
2022/04/28 00:39:28;;;;;;;4.57;2.72;;;9.60;74.80;;;;;;5067069;28;20075;-68
2022/04/28 00:41:55;;;;;;;4.45;2.25;;;9.60;74.60;;;;;;5057352;28;20517;-69
2022/04/28 00:44:22;;;;;;;4.47;2.00;;;9.60;74.80;;;;;;5042862;28;20128;-69
2022/04/28 00:46:49;;;;;;;3.85;2.08;;;9.60;74.60;;;;;;5041310;28;20067;-69
2022/04/28 00:52:03;;;;;;;5.35;2.22;;;9.50;74.70;;;;;;5044119;28;20045;-70
2022/04/28 00:54:30;;;;;;;3.72;1.60;;;9.40;74.70;;;;;;5045985;28;20045;-69
2022/04/28 00:56:59;;;;;;;3.92;1.67;;;9.40;74.70;;;;;;5019933;28;20418;-69
2022/04/28 00:59:29;;;;;;;4.38;2.00;;;9.40;74.80;;;;;;5029088;28;20048;-68
2022/04/28 01:01:56;;;;;;;4.93;2.05;;;9.40;74.80;;;;;;5038921;28;20053;-70
2022/04/28 01:04:25;;;;;;;3.83;2.15;;;9.30;74.70;;;;;;5022875;28;20053;-69
2022/04/28 01:06:52;;;;;;;4.18;2.17;;;9.30;74.80;;;;;;5038063;28;20037;-68
2022/04/28 01:09:19;;;;;;;5.13;2.00;;;9.20;75.00;;;;;;5036294;28;20056;-69
2022/04/28 01:11:46;;;;;;;5.72;1.77;;;9.20;75.00;;;;;;5043908;28;20064;-68
2022/04/28 01:14:22;;;;;;;3.58;1.65;;;9.20;75.00;;;;;;5047568;28;20549;-69
2022/04/28 01:16:55;;;;;;;4.80;2.17;;;9.20;74.80;;;;;;5041912;28;20048;-69
2022/04/28 01:19:22;;;;;;;5.95;2.50;;;9.20;74.90;;;;;;5047379;28;20041;-69
2022/04/28 01:21:52;;;;;;;2.72;1.52;;;9.20;75.00;;;;;;5048207;28;20040;-69
2022/04/28 01:24:19;;;;;;;5.83;2.03;;;9.20;75.00;;;;;;5018606;28;20249;-68
2022/04/28 01:26:47;;;;;;;5.32;2.50;;;9.20;75.10;;;;;;5045070;28;20048;-69
2022/04/28 01:29:14;;;;;;;3.63;1.83;;;9.20;75.00;;;;;;5037917;28;20114;-69
2022/04/28 01:31:41;;;;;;;4.18;2.38;;;9.10;74.90;;;;;;5045826;28;20483;-67
2022/04/28 01:34:08;;;;;;;4.40;1.92;;;9.10;75.00;;;;;;5043136;28;20053;-69
2022/04/28 01:36:37;;;;;;;5.55;2.10;;;9.00;75.10;;;;;;5029924;28;20056;-68
2022/04/28 01:39:07;;;;;;;3.95;2.00;;;9.00;75.10;;;;;;5040857;28;20052;-68
2022/04/28 01:41:36;;;;;;;4.88;2.10;;;9.00;75.10;;;;;;5028743;28;20140;-68
2022/04/28 01:44:04;;;;;;;3.28;1.55;;;9.00;75.00;;;;;;5049281;28;20628;-68
2022/04/28 01:46:31;;;;;;;4.82;2.42;;;9.00;74.90;;;;;;5069508;28;20049;-67
2022/04/28 01:49:17;;;;;;;3.95;3.00;;;8.90;75.00;;;;;;5067943;28;20060;-68
2022/04/28 01:55:00;;;;;;;3.30;1.60;;;8.90;75.00;;;;;;5068056;28;20071;-69
2022/04/28 01:57:54;;;;;;;4.88;2.17;;;8.90;75.00;;;;;;5030436;28;20565;-68
2022/04/28 02:00:39;;;;;;;4.13;2.42;;;8.80;74.90;;;;;;5052940;28;20130;-68
2022/04/28 02:03:10;;;;;;;3.33;1.83;;;8.80;74.90;;;;;;5051793;28;20044;-68
2022/04/28 02:05:39;;;;;;;3.65;2.15;;;8.70;75.00;;;;;;5051476;28;20053;-68
2022/04/28 02:08:09;;;;;;;3.95;2.00;;;8.70;75.00;;;;;;5050285;28;20045;-69
2022/04/28 02:10:37;;;;;;;8.20;2.20;;;8.70;75.00;;;;;;5061004;28;20498;-67
2022/04/28 02:13:08;;;;;;;3.17;1.73;;;8.70;75.00;;;;;;5042200;28;20109;-69
2022/04/28 02:15:55;;;;;;;2.88;1.48;;;8.70;75.00;;;;;;5060326;28;20105;-69
2022/04/28 02:18:56;;;;;;;5.22;2.13;;;8.70;75.10;;;;;;5067591;28;20050;-70
2022/04/28 02:21:23;;;;;;;3.60;1.95;;;8.70;75.20;;;;;;5068379;28;20383;-69
2022/04/28 02:23:49;;;;;;;3.72;2.05;;;8.60;75.30;;;;;;5067305;28;20210;-70
2022/04/28 02:26:18;;;;;;;3.40;2.00;;;8.60;75.20;;;;;;5048917;28;20135;-68
2022/04/28 02:28:45;;;;;;;4.43;1.98;;;8.60;75.30;;;;;;5059825;28;20098;-70
2022/04/28 02:31:12;;;;;;;6.65;2.33;;;8.50;75.40;;;;;;5069697;28;20045;-69
2022/04/28 02:33:39;;;;;;;3.88;2.13;;;8.60;75.50;;;;;;5054452;28;20041;-69
2022/04/28 02:36:24;;;;;;;3.50;1.67;;;8.50;75.60;;;;;;5070065;28;20041;-70
2022/04/28 02:38:51;;;;;;;3.72;1.85;;;8.50;75.60;;;;;;5052592;28;20051;-69
2022/04/28 02:41:21;;;;;;;3.33;1.75;;;8.50;75.50;;;;;;5051540;28;20251;-68
2022/04/28 02:43:50;;;;;;;3.97;1.88;;;8.50;75.60;;;;;;5068513;28;20055;-69
2022/04/28 02:46:17;;;;;;;3.58;1.85;;;8.40;75.60;;;;;;5064166;28;20056;-70
2022/04/28 02:48:56;;;;;;;4.00;1.88;;;8.40;75.60;;;;;;5054935;28;20071;-69
2022/04/28 02:51:23;;;;;;;3.35;1.90;;;8.40;75.70;;;;;;5071153;28;20098;-68
2022/04/28 02:53:51;;;;;;;3.35;2.03;;;8.30;75.90;;;;;;5063390;28;20139;-69
2022/04/28 02:56:18;;;;;;;3.38;1.95;;;8.20;76.10;;;;;;5054350;28;20059;-67
2022/04/28 02:58:46;;;;;;;4.95;1.98;;;8.20;76.40;;;;;;5068521;28;20649;-69
2022/04/28 03:01:13;;;;;;;4.68;2.00;;;8.20;76.30;;;;;;5047179;28;20054;-69
2022/04/28 03:03:43;;;;;;;3.55;1.88;;;8.20;76.30;;;;;;5053073;28;20040;-69
2022/04/28 03:11:41;;;;;;;3.22;2.00;;;8.20;76.70;;;;;;5066681;28;20039;-69
2022/04/28 03:14:10;;;;;;;4.20;1.98;;;8.20;76.50;;;;;;5068510;28;20053;-69
2022/04/28 03:16:38;;;;;;;3.15;1.65;;;8.20;76.40;;;;;;5052743;28;20044;-70
2022/04/28 03:19:07;;;;;;;3.35;1.65;;;8.20;76.30;;;;;;5066984;28;20063;-69
2022/04/28 03:21:35;;;;;;;4.68;1.98;;;8.10;76.40;;;;;;5069520;28;20052;-69
2022/04/28 03:24:06;;;;;;;4.25;2.03;;;8.10;76.40;;;;;;5051946;28;20075;-69
2022/04/28 03:26:33;;;;;;;4.15;1.92;;;8.10;76.40;;;;;;5069568;28;20117;-70
2022/04/28 03:29:01;;;;;;;5.30;2.47;;;8.10;76.40;;;;;;5056789;28;20083;-68
2022/04/28 03:31:30;;;;;;;4.55;1.95;;;8.00;76.60;;;;;;5063217;28;20167;-69
2022/04/28 03:34:10;;;;;;;4.13;1.95;;;8.00;76.60;;;;;;5044012;28;20052;-68
2022/04/28 03:36:52;;;;;;;4.88;2.05;;;8.00;76.60;;;;;;5061329;28;20052;-69
2022/04/28 03:39:46;;;;;;;5.60;2.15;;;8.00;76.40;;;;;;5068713;28;20064;-69
2022/04/28 03:42:17;;;;;;;6.18;2.08;;;8.00;76.30;;;;;;5067808;28;20114;-69
2022/04/28 03:44:44;;;;;;;3.40;1.90;;;7.90;76.60;;;;;;5060910;28;20059;-69
2022/04/28 03:47:13;;;;;;;6.35;2.35;;;7.90;76.80;;;;;;5070724;28;20139;-69
2022/04/28 03:49:42;;;;;;;4.70;1.73;;;7.80;76.90;;;;;;5061262;28;20047;-68
2022/04/28 03:52:10;;;;;;;3.03;1.58;;;7.80;76.80;;;;;;5065836;28;20123;-68
2022/04/28 03:54:37;;;;;;;6.45;2.30;;;7.90;76.70;;;;;;5046242;28;20052;-69
2022/04/28 03:57:06;;;;;;;4.15;2.25;;;7.80;76.90;;;;;;5061097;28;20048;-68
2022/04/28 03:59:34;;;;;;;3.65;1.95;;;7.90;76.60;;;;;;5062516;28;20413;-69
2022/04/28 04:02:28;;;;;;;3.55;2.10;;;7.90;76.50;;;;;;5060274;28;20473;-69
2022/04/28 04:04:55;;;;;;;5.50;2.08;;;7.90;76.30;;;;;;5044680;28;20047;-69
2022/04/28 04:07:23;;;;;;;3.45;1.95;;;7.80;76.30;;;;;;5046727;28;20048;-68
2022/04/28 04:09:52;;;;;;;9.77;2.75;;;7.90;76.30;;;;;;5062427;28;20071;-69
2022/04/28 04:12:27;;;;;;;4.22;1.92;;;7.80;76.20;;;;;;5061352;28;20067;-69
2022/04/28 04:15:04;;;;;;;4.97;2.10;;;7.80;76.20;;;;;;5062636;28;20060;-70
2022/04/28 04:17:52;;;;;;;3.60;1.85;;;7.80;76.30;;;;;;5062083;28;20067;-69
2022/04/28 04:20:22;;;;;;;4.80;2.13;;;7.80;76.30;;;;;;5062418;28;20056;-68
2022/04/28 04:22:49;;;;;;;4.43;2.47;;;7.70;76.20;;;;;;5062661;28;20127;-69
2022/04/28 04:25:16;;;;;;;3.20;1.80;;;7.70;76.20;;;;;;5063559;28;20162;-68
2022/04/28 04:27:46;;;;;;;4.05;1.90;;;7.70;76.30;;;;;;5045288;28;20047;-69
2022/04/28 04:33:35;;;;;;;3.45;1.80;;;7.70;76.50;;;;;;5059763;28;20041;-68
2022/04/28 04:36:05;;;;;;;5.18;2.15;;;7.70;76.50;;;;;;5044724;28;20048;-69
2022/04/28 04:38:32;;;;;;;3.42;1.60;;;7.70;76.50;;;;;;5037923;28;20125;-69
2022/04/28 04:40:59;;;;;;;4.82;2.00;;;7.70;76.50;;;;;;5060327;28;20140;-68
2022/04/28 04:43:26;;;;;;;4.70;1.80;;;7.70;76.50;;;;;;5045694;28;20048;-70
2022/04/28 04:45:53;;;;;;;6.75;2.17;;;7.70;76.50;;;;;;5060492;28;20040;-69
2022/04/28 04:48:42;;;;;;;3.40;1.67;;;7.70;76.60;;;;;;5047571;28;20080;-67
2022/04/28 04:51:28;;;;;;;5.88;2.20;;;7.70;76.60;;;;;;5061943;28;20113;-68
2022/04/28 04:54:06;;;;;;;4.97;2.17;;;7.60;76.60;;;;;;5047652;28;20052;-69
2022/04/28 04:56:34;;;;;;;4.28;1.90;;;7.60;76.70;;;;;;5061702;28;22010;-69
2022/04/28 04:59:01;;;;;;;4.78;2.17;;;7.70;76.70;;;;;;5042097;28;20089;-68
2022/04/28 05:01:28;;;;;;;4.22;2.13;;;7.70;76.80;;;;;;5055483;28;20053;-68
2022/04/28 05:04:15;;;;;;;4.25;1.65;;;7.60;76.90;;;;;;5062992;28;20051;-69
2022/04/28 05:07:11;;;;;;;3.83;1.90;;;7.70;77.00;;;;;;5044809;28;20509;-68
2022/04/28 05:09:40;;;;;;;5.72;2.25;;;7.70;77.10;;;;;;5056119;28;20098;-70
2022/04/28 05:12:09;;;;;;;4.32;1.83;;;7.60;77.30;;;;;;5059488;28;20047;-69
2022/04/28 05:14:52;;;;;;;3.70;1.95;;;7.70;77.30;;;;;;5050581;28;20071;-69
2022/04/28 05:17:20;;;;;;;3.58;1.95;;;7.70;77.50;;;;;;5058547;28;20049;-68
2022/04/28 05:20:14;;;;;;;3.92;1.77;;;7.70;77.80;;;;;;5058616;28;20056;-68
2022/04/28 05:23:00;;;;;;;3.40;1.83;;;7.60;78.10;;;;;;5059685;28;20070;-69
2022/04/28 05:25:59;;;;;;;4.38;2.22;;;7.60;78.30;;;;;;5062371;28;20518;-69
2022/04/28 05:28:41;;;;;;;3.15;1.90;;;7.70;78.30;;;;;;5059803;28;20048;-68
2022/04/28 05:31:34;;;;;;;4.80;2.22;;;7.70;78.60;;;;;;5058894;28;20041;-70
2022/04/28 05:34:11;;;;;;;7.32;2.35;;;7.70;78.60;;;;;;5038486;28;20102;-68
2022/04/28 05:36:45;;;;;;;5.53;2.13;;;7.80;78.50;;;;;;5054082;28;20041;-70
2022/04/28 05:39:12;;;;;;;3.90;1.98;;;7.80;78.60;;;;;;5057975;28;20052;-70
2022/04/28 05:41:40;;;;;;;4.22;2.00;;;7.80;78.70;;;;;;5054683;28;20053;-69
2022/04/28 05:46:52;;;;;;;5.35;2.20;;;7.90;78.60;;;;;;5042388;28;20486;-69
2022/04/28 05:49:19;;;;;;;5.50;2.47;;;7.90;78.50;;;;;;5042142;28;20044;-69
2022/04/28 05:51:48;;;;;;;5.38;2.42;;;7.90;78.60;;;;;;5024239;28;20064;-69
2022/04/28 05:54:16;;;;;;;5.85;1.75;;;8.00;78.50;;;;;;5037813;28;20476;-68
2022/04/28 05:56:43;;;;;;;4.85;2.70;;;8.00;78.60;;;;;;5026041;28;20048;-68
2022/04/28 05:59:12;;;;;;;3.88;1.77;;;8.10;78.80;;;;;;5016101;28;20053;-69
2022/04/28 06:01:42;;;;;;;4.60;2.17;;;8.10;78.90;;;;;;5041319;28;20044;-69
2022/04/28 06:04:12;;;;;;;5.70;2.30;;;8.20;78.80;;;;;;5036292;28;20517;-68
2022/04/28 06:06:40;;;;;;;6.90;3.33;;;8.30;78.70;;;;;;5022429;28;20041;-69
2022/04/28 06:09:19;;;;;;;6.47;2.80;;;8.30;78.60;;;;;;5040128;28;20095;-68
2022/04/28 06:11:48;;;;;;;5.90;2.83;;;8.40;78.60;;;;;;5023544;28;20140;-68
2022/04/28 06:14:15;;;;;;;4.70;2.50;;;8.40;78.70;;;;;;5024980;28;20045;-68
2022/04/28 06:17:01;;;;;;;4.80;2.67;;;8.50;78.60;;;;;;5041375;28;20060;-70
2022/04/28 06:19:29;;;;;;;7.63;3.42;;;8.50;78.50;;;;;;5024805;28;20496;-69
2022/04/28 06:22:06;;;;;;;9.32;3.17;;;8.60;78.40;;;;;;5038191;28;20073;-70
2022/04/28 06:24:42;;;;;;;6.60;2.97;;;8.70;78.60;;;;;;5024451;28;20045;-69
2022/04/28 06:27:11;;;;;;;4.47;2.53;;;8.70;78.50;;;;;;5022496;28;20045;-68
2022/04/28 06:29:40;;;;;;;5.55;3.10;;;8.80;78.60;;;;;;5021091;28;20045;-69
2022/04/28 06:32:10;;;;;;;3.90;2.10;;;8.90;78.60;;;;;;5036249;28;20057;-68
2022/04/28 06:35:00;;;;;;;4.47;2.58;;;9.00;78.40;;;;;;5028914;28;20741;-69
2022/04/28 06:37:31;;;;;;;5.40;2.90;;;9.20;78.40;;;;;;5038915;28;20049;-68
2022/04/28 06:40:05;;;;;;;5.25;2.75;;;9.30;78.20;;;;;;5035758;28;20091;-70
2022/04/28 06:42:32;;;;;;;5.85;2.63;;;9.40;78.30;;;;;;5025791;28;20526;-69
2022/04/28 06:45:19;;;;;;;6.43;2.80;;;9.60;78.30;;;;;;5059931;28;20711;-68
2022/04/28 06:47:52;;;;;;;4.00;2.65;;;9.80;77.70;;;;;;5057754;28;20125;-70
2022/04/28 06:50:37;;;;;;;5.07;2.78;;;9.90;77.70;;;;;;5058428;28;20457;-67
2022/04/28 06:53:23;;;;;;;7.32;3.10;;;10.00;77.70;;;;;;5053530;28;20090;-69
2022/04/28 06:55:55;;;;;;;4.72;2.90;;;10.10;77.80;;;;;;5060281;28;20137;-68
2022/04/28 06:58:22;;;;;;;5.97;3.00;;;10.30;78.00;;;;;;5059270;28;20049;-69
2022/04/28 07:00:50;;;;;;;7.47;3.33;;;10.40;77.90;;;;;;5024506;28;20048;-70
2022/04/28 07:03:19;;;;;;;4.65;2.55;;;10.50;77.90;;;;;;5038900;28;20052;-68
2022/04/28 07:05:50;;;;;;;7.13;3.72;;;10.70;78.00;;;;;;5053674;28;20090;-68
2022/04/28 07:08:17;;;;;;;4.60;2.50;;;10.90;77.70;;;;;;5047015;28;20048;-68
2022/04/28 07:10:46;;;;;;;6.23;2.80;;;11.00;77.60;;;;;;5060131;28;20076;-69
2022/04/28 07:13:15;;;;;;;6.18;2.90;;;11.20;77.70;;;;;;5065119;28;20078;-68
2022/04/28 07:16:00;;;;;;;5.72;2.95;;;11.30;77.40;;;;;;5066024;28;20065;-70
2022/04/28 07:18:49;;;;;;;4.75;2.45;;;11.50;76.80;;;;;;5047819;28;20053;-69
2022/04/28 07:21:16;;;;;;;5.50;2.50;;;11.70;76.90;;;;;;5047460;28;20153;-68
2022/04/28 07:23:43;;;;;;;4.25;2.33;;;11.80;76.10;;;;;;5046364;28;20044;-69
2022/04/28 07:26:11;;;;;;;4.38;2.38;;;11.90;75.70;;;;;;5061848;28;20041;-69
2022/04/28 07:28:39;;;;;;;5.70;2.80;;;12.10;75.40;;;;;;5067678;28;20036;-68
2022/04/28 07:31:36;;;;;;;5.10;2.00;;;12.20;74.70;;;;;;5064908;28;20045;-69
2022/04/28 07:34:11;;;;;;;4.82;2.65;;;12.40;74.20;;;;;;5067264;28;20056;-69
2022/04/28 07:36:57;;;;;;;4.40;2.38;;;12.60;74.20;;;;;;5064549;28;20044;-69
2022/04/28 07:39:42;;;;;;;4.32;2.67;;;12.60;74.50;;;;;;5064308;28;22106;-69
2022/04/28 07:42:09;;;;;;;6.05;3.03;;;12.80;74.00;;;;;;5028548;28;20522;-69
2022/04/28 07:44:44;;;;;;;5.20;2.42;;;12.90;74.00;;;;;;5025078;28;20053;-69
2022/04/28 07:47:11;;;;;;;5.20;2.80;;;13.10;73.80;;;;;;5033648;28;20045;-68
2022/04/28 07:50:05;;;;;;;4.95;2.35;;;13.20;73.00;;;;;;5036657;28;20053;-70
2022/04/28 07:52:32;;;;;;;4.68;2.60;;;13.40;72.90;;;;;;5045220;28;20065;-69
2022/04/28 07:54:59;;;;;;;4.10;2.35;;;13.50;73.30;;;;;;5040558;28;20037;-69
2022/04/28 07:57:26;;;;;;;5.97;2.67;;;13.70;72.20;;;;;;5032081;28;20441;-70
2022/04/28 07:59:55;;;;;;;6.30;2.72;;;13.80;71.90;;;;;;5044693;28;20060;-69
2022/04/28 08:02:22;;;;;;;4.80;2.15;;;13.90;71.50;;;;;;5032649;28;20051;-67
2022/04/28 08:04:52;;;;;;;4.75;2.50;;;14.10;71.20;;;;;;5024570;28;20044;-68
2022/04/28 08:07:20;;;;;;;6.72;3.10;;;14.20;71.20;;;;;;5024909;28;20490;-68
2022/04/28 08:09:53;;;;;;;6.35;2.70;;;14.20;70.90;;;;;;5018988;28;20049;-69
2022/04/28 08:12:22;;;;;;;4.70;2.50;;;14.40;70.40;;;;;;5017694;28;20049;-69
2022/04/28 08:14:50;;;;;;;5.65;2.40;;;14.50;69.20;;;;;;5023752;28;20044;-67
2022/04/28 08:17:19;;;;;;;4.38;2.20;;;14.60;69.00;;;;;;5040768;28;20044;-68
2022/04/28 08:19:47;;;;;;;6.45;2.25;;;14.70;68.30;;;;;;5022253;28;20061;-67
2022/04/28 08:22:17;;;;;;;5.43;2.35;;;14.80;68.10;;;;;;5022037;28;20187;-66
2022/04/28 08:24:44;;;;;;;4.72;2.40;;;15.00;67.70;;;;;;5023745;28;20033;-69
2022/04/28 08:27:11;;;;;;;4.82;2.45;;;15.10;67.60;;;;;;5041265;28;20077;-67
2022/04/28 08:29:39;;;;;;;4.78;2.17;;;15.20;68.00;;;;;;5023361;28;20468;-68
2022/04/28 08:32:15;;;;;;;4.25;1.90;;;15.30;68.10;;;;;;5023874;28;20041;-69
2022/04/28 08:34:45;;;;;;;5.32;2.58;;;15.40;67.40;;;;;;5022758;28;20049;-69
2022/04/28 08:37:12;;;;;;;3.75;2.05;;;15.50;67.80;;;;;;5055268;28;20080;-69
2022/04/28 08:39:39;;;;;;;4.53;2.08;;;15.60;67.40;;;;;;5041625;28;20895;-70
2022/04/28 08:42:08;;;;;;;3.90;1.83;;;15.70;67.00;;;;;;5034305;28;20056;-69
2022/04/28 08:44:53;;;;;;;4.32;1.85;;;15.80;66.00;;;;;;5042518;28;20585;-69
2022/04/28 08:47:34;;;;;;;4.93;2.38;;;15.90;66.50;;;;;;5063158;28;20048;-70
2022/04/28 08:50:22;;;;;;;3.28;2.00;;;16.00;65.80;;;;;;5056978;28;20969;-70
2022/04/28 08:53:15;;;;;;;4.88;1.85;;;16.10;66.30;;;;;;5055716;28;20056;-68
2022/04/28 08:55:44;;;;;;;5.43;2.10;;;16.20;65.50;;;;;;5045606;28;20173;-68
2022/04/28 08:58:12;;;;;;;3.15;1.38;;;16.40;64.50;;;;;;5045877;28;20056;-68
2022/04/28 09:00:52;;;;;;;;;;;16.50;63.40;;;;;;5042184;28;20405;-70
2022/04/28 09:03:48;;;;;;;3.92;1.80;;;16.60;62.70;;;;;;5064005;28;19950;-69
2022/04/28 09:06:43;;;;;;;4.00;1.80;;;16.60;62.30;;;;;;5040568;28;20056;-70
2022/04/28 09:09:36;;;;;;;2.33;1.30;;;16.70;62.30;;;;;;5028555;28;20063;-69
2022/04/28 09:12:22;;;;;;;2.83;1.48;;;16.90;60.10;;;;;;5063967;28;20121;-69
2022/04/28 09:15:13;;;;;;;3.42;1.30;;;17.00;60.00;;;;;;5062695;28;20144;-68
2022/04/28 09:17:50;;;;;;;3.03;1.90;;;17.10;59.80;;;;;;5055258;28;20048;-68
2022/04/28 09:20:22;;;;;;;3.00;1.75;;;17.20;59.00;;;;;;5063848;28;20041;-69
2022/04/28 09:22:54;;;;;;;4.20;1.83;;;17.30;57.70;;;;;;5042584;28;20044;-69
2022/04/28 09:25:26;;;;;;;4.88;1.73;;;17.40;56.90;;;;;;5060516;28;20565;-69
2022/04/28 09:27:54;;;;;;;5.25;1.50;;;17.50;55.40;;;;;;5061660;28;20068;-70
2022/04/28 09:30:22;;;;;;;3.78;1.50;;;17.60;54.50;;;;;;5053834;28;20044;-69
2022/04/28 09:33:17;;;;;;;2.75;1.40;;;17.70;53.40;;;;;;5062948;28;20090;-68
2022/04/28 09:35:54;;;;;;;3.15;1.75;;;17.80;55.10;;;;;;5054023;28;20052;-69
2022/04/28 09:38:53;;;;;;;2.15;1.25;;;17.90;54.70;;;;;;5041105;28;20037;-70
2022/04/28 09:44:06;;;;;;;3.05;1.55;;;18.10;53.40;;;;;;5041007;28;20056;-70
2022/04/28 09:46:41;;;;;;;2.50;1.30;;;18.20;53.30;;;;;;5040850;28;20054;-69
2022/04/28 09:49:10;;;;;;;3.95;1.60;;;18.30;53.70;;;;;;5041821;28;20513;-68
2022/04/28 09:51:59;;;;;;;3.65;1.60;;;18.50;52.80;;;;;;5050366;28;20048;-70
2022/04/28 09:54:36;;;;;;;4.30;1.70;;;18.60;52.10;;;;;;5042275;28;20044;-69
2022/04/28 09:57:08;;;;;;;2.75;1.35;;;18.60;51.40;;;;;;5035949;28;20127;-69
2022/04/28 09:59:37;;;;;;;4.13;1.60;;;18.70;51.00;;;;;;5042310;28;20063;-69
2022/04/28 10:02:05;;;;;;;2.35;1.00;;;18.80;51.30;;;;;;5054764;28;20076;-69
2022/04/28 10:04:34;;;;;;;3.15;1.50;;;18.90;50.60;;;;;;5060526;28;20167;-68
2022/04/28 10:07:19;;;;;;;3.55;1.13;;;19.00;50.60;;;;;;5041726;28;20037;-70
2022/04/28 10:09:50;;;;;;;3.67;1.40;;;19.10;49.90;;;;;;5040581;28;20056;-70
2022/04/28 10:12:22;;;;;;;3.90;1.30;;;19.10;50.20;;;;;;5038856;28;20051;-70
2022/04/28 10:15:22;;;;;;;3.08;1.38;;;19.10;47.10;;;;;;5009017;28;20591;-68
2022/04/28 10:17:54;;;;;;;1.80;1.20;;;19.10;48.20;;;;;;5062235;28;20064;-71
2022/04/28 10:20:30;;;;;;;2.22;1.40;;;19.10;46.70;;;;;;5036087;28;20051;-70
2022/04/28 10:23:02;;;;;;;3.30;1.50;;;18.90;47.00;;;;;;5051262;28;20048;-69
2022/04/28 10:34:30;;;;;;;2.65;1.45;;;18.40;47.30;;;;;;5060599;28;20119;-69
2022/04/28 10:36:59;;;;;;;5.43;1.20;;;18.40;47.00;;;;;;5059647;28;20040;-69
2022/04/28 10:39:39;;;;;;;2.58;1.27;;;18.40;47.00;;;;;;5059651;28;20041;-67
2022/04/28 10:42:16;;;;;;;3.40;1.70;;;18.40;48.20;;;;;;5050042;28;20517;-69
2022/04/28 10:44:54;;;;;;;2.83;1.48;;;18.50;48.80;;;;;;5039611;28;20060;-69
2022/04/28 10:47:34;;;;;;;3.88;1.73;;;18.60;49.50;;;;;;5037413;28;20040;-70
2022/04/28 10:50:01;;;;;;;;;;;18.70;48.50;;;;;;5042486;28;20045;-69
2022/04/28 10:52:29;;;;;;;2.58;1.40;;;18.80;48.70;;;;;;5042273;28;19920;-71
2022/04/28 10:55:00;;;;;;;3.63;1.48;;;18.90;48.50;;;;;;5018996;28;21332;-70
2022/04/28 10:57:33;;;;;;;2.45;1.50;;;18.90;48.50;;;;;;5043654;28;20044;-68
2022/04/28 11:00:02;;;;;;;5.32;1.65;;;19.00;48.70;;;;;;5043832;28;20391;-69
2022/04/28 11:02:49;;;;;;;6.97;3.47;;;19.00;49.00;;;;;;5041904;28;20033;-68
2022/04/28 11:05:38;;;;;;;5.35;2.58;;;19.10;48.90;;;;;;5020712;28;20076;-68
2022/04/28 11:08:10;;;;;;;3.33;1.45;;;19.10;48.70;;;;;;5042969;28;20171;-70
2022/04/28 11:11:19;;;;;;;4.72;1.73;;;19.20;48.40;;;;;;5043003;28;20065;-68
2022/04/28 11:14:14;;;;;;;3.42;1.65;;;19.20;48.20;;;;;;5045803;28;20394;-68
2022/04/28 11:16:42;;;;;;;6.22;2.30;;;19.20;48.40;;;;;;4999461;28;20908;-68
2022/04/28 11:19:11;;;;;;;5.82;2.60;;;19.20;47.90;;;;;;5028001;28;20467;-69
2022/04/28 11:21:40;;;;;;;6.22;2.55;;;19.30;48.10;;;;;;5043929;28;20961;-69
2022/04/28 11:24:07;;;;;;;4.20;2.05;;;19.30;47.60;;;;;;5034786;28;20052;-71
2022/04/28 11:26:48;;;;;;;6.93;2.25;;;19.40;47.40;;;;;;5042603;28;20729;-68
2022/04/28 11:29:30;;;;;;;4.25;1.98;;;19.50;47.30;;;;;;5046660;28;20053;-69
2022/04/28 11:32:00;;;;;;;3.42;1.90;;;19.60;46.50;;;;;;5049309;28;20060;-69
2022/04/28 11:34:29;;;;;;;3.50;1.48;;;19.60;46.90;;;;;;5047762;28;20112;-68
2022/04/28 11:36:56;;;;;;;4.20;1.92;;;19.70;46.70;;;;;;5048801;28;20127;-70
2022/04/28 11:39:24;;;;;;;3.25;1.65;;;19.70;46.70;;;;;;5046241;28;20056;-71
2022/04/28 11:41:52;;;;;;;5.15;1.98;;;19.70;46.70;;;;;;5049156;28;20110;-69
2022/04/28 11:44:21;;;;;;;2.03;1.30;;;19.80;47.00;;;;;;5067518;28;20098;-69
2022/04/28 11:46:50;;;;;;;3.08;1.70;;;19.70;47.10;;;;;;5066389;28;20046;-70
2022/04/28 11:49:18;;;;;;;;;;;19.70;47.10;;;;;;5068001;28;20123;-70
2022/04/28 11:51:45;;;;;;;3.35;1.55;;;19.70;47.10;;;;;;5070468;28;19958;-69
2022/04/28 11:54:20;;;;;;;4.82;2.28;;;19.60;47.00;;;;;;5061727;28;20045;-70
2022/04/28 11:56:48;;;;;;;9.23;3.90;;;19.60;47.00;;;;;;5060401;28;20044;-70
2022/04/28 11:59:15;;;;;;;9.43;4.85;;;19.60;46.80;;;;;;5062791;28;20072;-69
2022/04/28 12:01:44;;;;;;;10.52;4.45;;;19.70;47.10;;;;;;5063530;28;20502;-70
2022/04/28 12:04:14;;;;;;;7.63;4.05;;;19.80;45.20;;;;;;5069040;28;20041;-70
2022/04/28 12:06:46;;;;;;;6.97;2.70;;;19.90;45.60;;;;;;5067245;28;20060;-70
2022/04/28 12:14:42;;;;;;;7.60;4.53;;;19.90;46.70;;;;;;5068683;28;20124;-70
2022/04/28 12:19:57;;;;;;;7.75;4.00;;;19.90;46.50;;;;;;5070236;28;20036;-70
2022/04/28 12:22:26;;;;;;;7.00;2.90;;;19.90;46.30;;;;;;5068555;28;20391;-69
2022/04/28 12:24:53;;;;;;;5.50;2.70;;;19.90;46.30;;;;;;5071331;28;20044;-69
2022/04/28 12:27:21;;;;;;;16.13;6.22;;;19.90;46.70;;;;;;5071553;28;20044;-69
2022/04/28 12:29:52;;;;;;;9.20;4.35;;;19.90;45.90;;;;;;5071708;28;20047;-70
2022/04/28 12:32:20;;;;;;;7.70;3.15;;;19.90;45.10;;;;;;5067281;28;20516;-70
2022/04/28 12:34:59;;;;;;;7.63;2.97;;;20.00;45.70;;;;;;5062487;28;20051;-70
2022/04/28 12:37:27;;;;;;;5.07;2.53;;;19.90;45.70;;;;;;5068242;28;20045;-70
2022/04/28 12:39:56;;;;;;;6.05;2.55;;;20.00;45.60;;;;;;5064300;28;20060;-70
2022/04/28 12:42:23;;;;;;;9.38;3.90;;;19.90;46.10;;;;;;5068768;28;20110;-70
2022/04/28 12:44:49;;;;;;;5.55;2.70;;;19.90;45.60;;;;;;5068988;28;20044;-70
2022/04/28 12:47:16;;;;;;;6.97;3.65;;;19.90;45.70;;;;;;5068904;28;20072;-70
2022/04/28 12:49:45;;;;;;;8.07;2.85;;;19.90;45.10;;;;;;5067881;28;20045;-69
2022/04/28 12:52:26;;;;;;;5.55;2.28;;;19.80;45.00;;;;;;5068250;28;20053;-70
2022/04/28 12:55:02;;;;;;;4.63;2.38;;;19.80;45.20;;;;;;5068847;28;20379;-69
2022/04/28 12:57:31;;;;;;;4.20;2.20;;;19.80;46.10;;;;;;5068695;28;20047;-69
2022/04/28 13:00:01;;;;;;;3.95;2.10;;;19.80;45.50;;;;;;5067841;28;20124;-71
2022/04/28 13:02:30;;;;;;;3.63;1.70;;;19.70;45.50;;;;;;5062755;28;20047;-70
2022/04/28 13:05:09;;;;;;;3.43;1.90;;;19.80;45.80;;;;;;5067592;28;20047;-70
2022/04/28 13:07:37;;;;;;;4.05;1.80;;;19.80;45.20;;;;;;5067523;28;20048;-70
2022/04/28 13:10:05;;;;;;;3.20;1.80;;;19.80;45.90;;;;;;5066556;28;20044;-70
2022/04/28 13:12:32;;;;;;;3.40;1.42;;;19.70;46.70;;;;;;5066065;28;20129;-69
2022/04/28 13:15:01;;;;;;;5.07;1.90;;;19.70;47.10;;;;;;5068323;28;20048;-70
2022/04/28 13:17:29;;;;;;;4.57;2.25;;;19.80;46.80;;;;;;5066187;28;20045;-70
2022/04/28 13:19:56;;;;;;;3.88;2.22;;;19.80;46.80;;;;;;5063183;28;21309;-70
2022/04/28 13:22:23;;;;;;;6.55;3.15;;;19.80;46.50;;;;;;5039161;28;20051;-71
2022/04/28 13:24:52;;;;;;;6.95;3.20;;;19.90;46.20;;;;;;5065019;28;20131;-70
2022/04/28 13:27:19;;;;;;;6.15;2.90;;;19.90;46.00;;;;;;5065542;28;20047;-70
2022/04/28 13:29:46;;;;;;;6.57;3.85;;;19.90;45.30;;;;;;5067018;28;20519;-70
2022/04/28 13:32:13;;;;;;;6.28;2.90;;;20.00;45.40;;;;;;5065380;28;20048;-69
2022/04/28 13:34:41;;;;;;;7.05;3.58;;;19.90;45.50;;;;;;5066929;28;20045;-70
2022/04/28 13:37:08;;;;;;;5.80;2.53;;;20.00;45.40;;;;;;5066309;28;20051;-69
2022/04/28 13:39:37;;;;;;;4.53;2.20;;;20.00;45.30;;;;;;5066673;28;20044;-69
2022/04/28 13:42:05;;;;;;;11.95;6.18;;;20.10;45.00;;;;;;5057797;28;20133;-69
2022/04/28 13:44:34;;;;;;;12.80;7.03;;;20.10;45.00;;;;;;5043899;28;20498;-69
2022/04/28 13:47:01;;;;;;;11.80;6.90;;;20.10;45.50;;;;;;5027169;28;20053;-69
2022/04/28 13:49:28;;;;;;;10.38;5.30;;;20.00;45.60;;;;;;5025557;28;20472;-71
2022/04/28 13:51:56;;;;;;;9.40;4.38;;;20.00;45.70;;;;;;5034934;28;20041;-70
2022/04/28 13:54:23;;;;;;;7.55;3.33;;;20.00;45.70;;;;;;5038962;28;20068;-71
2022/04/28 13:56:50;;;;;;;6.88;2.60;;;19.90;45.20;;;;;;5040046;28;21010;-70